Terminal Aerodrome Forecast
Issued by NWS

Home | Current Version | Previous Version | Text Only | Print | Product List | Glossary On
Versions: 1 2 3 4 5 6 7 8 9 10 11 12 13 14 15 16 17 18 19 20 21 22
000
FTUS42 KJAX 232300
TAFVQQ
TAF
KVQQ 232331Z 2400/2424 VRB03KT P6SM SKC
     FM240900 00000KT 3SM BR SCT002
     FM241300 VRB04KT P6SM SCT050
     FM241800 14008KT P6SM BKN050=

USA.gov is the U.S. government's official web portal to all federal, state and local government web resources and services.